Captain Evangelos Nm — 9HWW8 — position and weather

sailwx.info

Track history (hours):
 
Tides and Currents Weather Stations Pressure Air Temp Water Temp Dewpoint Dewpoint Depression Visibility Wind Speed Wind Dir Waves Ship Positions

Captain Evangelos Nm

Last reported at 2014-Jun-29 19:26 UTC. Time now 2014-Jul-31 17:36 UTC.
Position N 31°23' E 032°20'.
Warning: this ship's position is 31 days out of date.

Length 223 m; draft 12.6 m.

Type: Cargo ship. MMSI: 256545000.

Date/timePositionNaut miles runAvg speedWind from/ knotsBaromVisibWave heightAir tempDewpointWater temp
2014-Jun-29 19:26N 31°23' E 032°20'0 0.0
2014-Jun-29 17:33N 31°23' E 032°20'0 0.0
2014-Jun-29 16:33N 31°23' E 032°20'113110.9
2014-Jun-29 15:32N 31°10' E 034°31'113115.4
2014-Jun-29 14:33N 31°23' E 032°20'0 0.0
2014-Jun-29 13:32N 31°23' E 032°20'0 0.0
2014-Jun-29 12:34N 31°23' E 032°20'0 0.0
2014-Jun-29 11:33N 31°23' E 032°20'0 0.0
2014-Jun-29 10:34N 31°23' E 032°20'0 0.0
2014-Jun-29 09:33N 31°23' E 032°20'0 0.0
2014-Jun-29 08:34N 31°23' E 032°20'0 0.0
2014-Jun-29 07:33N 31°23' E 032°20'0 0.0
2014-Jun-29 06:33N 31°23' E 032°20'0 0.0
2014-Jun-29 05:24N 31°23' E 032°20'1 1.3
2014-Jun-29 04:34N 31°24' E 032°20'1010.4
2014-Jun-29 03:33N 31°32' E 032°12'1312.5
2014-Jun-29 02:33N 31°41' E 032°02'1212.3
2014-Jun-29 01:33N 31°47' E 031°49'1313.0
2014-Jun-29 00:33N 31°51' E 031°34'1313.1
2014-Jun-28 23:33N 31°55' E 031°20'1313.1
2014-Jun-28 22:33N 31°58' E 031°05'  
2014-Jun-26 03:34N 36°18' E 014°43'1312.8
2014-Jun-26 02:33N 36°22' E 014°28'1312.6
2014-Jun-26 01:33N 36°26' E 014°13'1212.3
2014-Jun-26 00:33N 36°29' E 013°58'1212.3
2014-Jun-25 23:33N 36°34' E 013°44'1312.2
2014-Jun-25 22:30N 36°37' E 013°28'1112.2
2014-Jun-25 21:33N 36°41' E 013°15'1312.5
2014-Jun-25 20:32N 36°45' E 012°59'1313.0
2014-Jun-25 19:34N 36°49' E 012°44'1413.3
2014-Jun-25 18:30N 36°53' E 012°28'1913.0
2014-Jun-25 17:04N 36°59' E 012°05'813.0
2014-Jun-25 16:29N 37°01' E 011°56'1412.7
2014-Jun-25 15:25N 37°08' E 011°42'1112.8
2014-Jun-25 14:32N 37°14' E 011°30'1512.9
2014-Jun-25 13:22N 37°21' E 011°13'1112.8
2014-Jun-25 12:29N 37°25' E 010°60'1312.6
2014-Jun-25 11:27N 37°28' E 010°44'1212.4
2014-Jun-25 10:30N 37°31' E 010°29'37512.8
2014-Jun-24 05:08N 36°60' E 002°40'4213.8
2014-Jun-24 02:04N 36°53' E 001°47'9113.4
2014-Jun-23 19:15N 36°38' W 000°05'2413.7
2014-Jun-23 17:30N 36°35' W 000°34'1112.0
2014-Jun-23 16:32N 36°33' W 000°49'1212.4
2014-Jun-23 15:33N 36°31' W 001°04'1312.7
2014-Jun-23 14:33N 36°29' W 001°19'197 7.7
2014-Jun-22 13:07N 35°60' W 005°21'23211.3
2014-Jun-21 16:33N 37°33' W 009°45'1312.5
2014-Jun-21 15:33N 37°45' W 009°49'1312.6
2014-Jun-21 14:33N 37°57' W 009°53'1312.9
2014-Jun-21 13:32N 38°10' W 009°56'  
Track history (hours):
 
Tides and Currents Weather Stations Pressure Air Temp Water Temp Dewpoint Dewpoint Depression Visibility Wind Speed Wind Dir Waves Ship Positions

Captain Evangelos Nm

Last reported at 2014-Jun-29 19:26 UTC. Time now 2014-Jul-31 17:36 UTC.
Position N 31°23' E 032°20'.
Warning: this ship's position is 31 days out of date.

Length 223 m; draft 12.6 m.

Type: Cargo ship. MMSI: 256545000.

Date/timePositionNaut miles runAvg speedWind from/ knotsBaromVisibWave heightAir tempDewpointWater temp
2014-Jun-29 19:26N 31°23' E 032°20'0 0.0
2014-Jun-29 17:33N 31°23' E 032°20'0 0.0
2014-Jun-29 16:33N 31°23' E 032°20'113110.9
2014-Jun-29 15:32N 31°10' E 034°31'113115.4
2014-Jun-29 14:33N 31°23' E 032°20'0 0.0
2014-Jun-29 13:32N 31°23' E 032°20'0 0.0
2014-Jun-29 12:34N 31°23' E 032°20'0 0.0
2014-Jun-29 11:33N 31°23' E 032°20'0 0.0
2014-Jun-29 10:34N 31°23' E 032°20'0 0.0
2014-Jun-29 09:33N 31°23' E 032°20'0 0.0
2014-Jun-29 08:34N 31°23' E 032°20'0 0.0
2014-Jun-29 07:33N 31°23' E 032°20'0 0.0
2014-Jun-29 06:33N 31°23' E 032°20'0 0.0
2014-Jun-29 05:24N 31°23' E 032°20'1 1.3
2014-Jun-29 04:34N 31°24' E 032°20'1010.4
2014-Jun-29 03:33N 31°32' E 032°12'1312.5
2014-Jun-29 02:33N 31°41' E 032°02'1212.3
2014-Jun-29 01:33N 31°47' E 031°49'1313.0
2014-Jun-29 00:33N 31°51' E 031°34'1313.1
2014-Jun-28 23:33N 31°55' E 031°20'1313.1
2014-Jun-28 22:33N 31°58' E 031°05'  
2014-Jun-26 03:34N 36°18' E 014°43'1312.8
2014-Jun-26 02:33N 36°22' E 014°28'1312.6
2014-Jun-26 01:33N 36°26' E 014°13'1212.3
2014-Jun-26 00:33N 36°29' E 013°58'1212.3
2014-Jun-25 23:33N 36°34' E 013°44'1312.2
2014-Jun-25 22:30N 36°37' E 013°28'1112.2
2014-Jun-25 21:33N 36°41' E 013°15'1312.5
2014-Jun-25 20:32N 36°45' E 012°59'1313.0
2014-Jun-25 19:34N 36°49' E 012°44'1413.3
2014-Jun-25 18:30N 36°53' E 012°28'1913.0
2014-Jun-25 17:04N 36°59' E 012°05'813.0
2014-Jun-25 16:29N 37°01' E 011°56'1412.7
2014-Jun-25 15:25N 37°08' E 011°42'1112.8
2014-Jun-25 14:32N 37°14' E 011°30'1512.9
2014-Jun-25 13:22N 37°21' E 011°13'1112.8
2014-Jun-25 12:29N 37°25' E 010°60'1312.6
2014-Jun-25 11:27N 37°28' E 010°44'1212.4
2014-Jun-25 10:30N 37°31' E 010°29'37512.8
2014-Jun-24 05:08N 36°60' E 002°40'4213.8
2014-Jun-24 02:04N 36°53' E 001°47'9113.4
2014-Jun-23 19:15N 36°38' W 000°05'2413.7
2014-Jun-23 17:30N 36°35' W 000°34'1112.0
2014-Jun-23 16:32N 36°33' W 000°49'1212.4
2014-Jun-23 15:33N 36°31' W 001°04'1312.7
2014-Jun-23 14:33N 36°29' W 001°19'197 7.7
2014-Jun-22 13:07N 35°60' W 005°21'23211.3
2014-Jun-21 16:33N 37°33' W 009°45'1312.5
2014-Jun-21 15:33N 37°45' W 009°49'1312.6
2014-Jun-21 14:33N 37°57' W 009°53'1312.9
2014-Jun-21 13:32N 38°10' W 009°56'  

Dump ship's entire track history